MDT,Max TemperatureF,Mean TemperatureF,Min TemperatureF,Max Dew PointF,MeanDew PointF,Min DewpointF,Max Humidity, Mean Humidity, Min Humidity, Max Sea Level PressureIn, Mean Sea Level PressureIn, Min Sea Level PressureIn, Max VisibilityMiles, Mean VisibilityMiles, Min VisibilityMiles, Max Wind SpeedMPH, Mean Wind SpeedMPH, Max Gust SpeedMPH,PrecipitationIn, CloudCover, Events, WindDirDegrees
2013-3-1,44,32,20,22,18,13,75,56,36,30.42,30.34,30.27,10,10,10,12,7,16,0.00,5,,143
2013-3-2,56,41,25,27,22,19,69,47,24,30.37,30.23,30.01,10,10,10,13,7,15,0.00,5,,214
2013-3-3,57,47,37,27,22,15,59,41,22,29.98,29.74,29.59,10,10,10,20,8,23,0.00,5,,159
2013-3-4,41,28,14,27,20,8,92,72,51,30.34,29.95,29.63,10,8,0,12,9,18,T,6,Fog-Snow,57
2013-3-5,40,24,8,21,15,3,81,61,40,30.41,30.32,30.17,10,10,10,14,6,18,0.00,0,,131
2013-3-6,56,39,21,28,20,13,92,55,18,30.19,29.97,29.81,10,10,7,18,5,22,0.00,3,,152
2013-3-7,63,48,33,27,20,17,59,38,17,29.94,29.86,29.78,10,10,10,24,5,31,0.00,2,,155
2013-3-8,46,38,29,33,29,24,92,73,53,29.94,29.83,29.68,10,9,5,10,3,12,0.00,6,,328
2013-3-9,34,30,25,31,27,15,100,82,63,30.15,29.82,29.62,10,3,0,35,12,40,0.19,7,Fog-Snow,347
2013-3-10,37,26,15,20,16,13,88,64,40,30.25,30.18,30.08,10,10,10,16,5,20,0.00,2,,315
2013-3-11,50,38,25,30,24,14,100,66,31,30.16,30.04,29.91,10,8,1,28,8,32,0.01,7,Snow,59
2013-3-12,38,31,23,29,26,19,100,85,70,30.41,30.25,30.12,10,5,0,14,4,15,0.06,7,Fog-Snow,115
2013-3-13,62,46,29,27,24,20,85,55,24,30.31,30.22,30.14,10,10,8,15,6,18,0.00,4,,235
2013-3-14,69,52,35,27,22,13,64,39,14,30.30,30.18,30.10,10,10,10,15,5,18,0.00,4,,199
2013-3-15,73,59,44,24,21,16,39,26,12,30.05,29.87,29.75,10,10,10,18,9,24,0.00,5,,248
2013-3-16,51,45,38,37,31,27,73,56,39,29.95,29.86,29.78,10,10,10,16,7,20,T,6,Rain,201
2013-3-17,59,46,33,31,21,4,76,44,11,29.80,29.64,29.46,10,10,10,36,13,43,0.00,3,,250
2013-3-18,49,36,23,18,11,7,65,42,18,29.96,29.90,29.80,10,10,10,25,10,31,0.00,2,,286
2013-3-19,52,38,23,19,7,-16,63,35,6,30.41,30.10,29.92,10,10,10,25,8,32,0.00,3,,17
2013-3-20,60,40,20,22,17,8,84,49,14,30.38,30.04,29.75,10,10,10,18,5,22,0.00,4,,191
2013-3-21,55,42,28,32,24,13,75,51,27,29.82,29.63,29.47,10,10,10,29,8,38,T,4,Rain,146
2013-3-22,51,37,23,28,23,19,100,66,31,29.91,29.77,29.57,10,7,0,38,12,46,0.11,6,Fog-Snow,81
2013-3-23,24,16,7,24,14,5,100,90,80,30.37,30.10,29.84,10,2,0,26,13,31,0.32,8,Fog-Snow,352
2013-3-24,26,12,-2,16,9,-3,100,73,46,30.35,30.24,30.03,10,7,1,17,7,21,0.01,6,Snow,23
2013-3-25,30,16,1,16,7,-1,100,66,31,30.43,30.35,30.14,10,7,2,15,3,18,T,3,Snow,133
2013-3-26,50,34,17,28,19,9,75,53,31,30.29,30.08,29.94,10,9,5,18,9,20,0.00,5,,150
2013-3-27,54,40,26,33,28,23,85,62,38,30.12,30.06,30.01,10,8,5,17,5,23,0.00,3,,168
2013-3-28,62,47,32,32,29,23,75,49,23,30.12,30.06,30.00,10,10,9,17,8,21,0.00,5,,167
2013-3-29,65,51,37,31,28,24,65,44,22,30.12,30.06,29.99,10,10,10,22,7,26,0.00,5,,255
2013-3-30,65,50,34,37,30,21,79,49,19,30.21,30.07,29.92,10,10,10,28,7,35,0.00,5,,312
2013-3-31,68,51,33,34,23,8,96,53,10,30.16,30.00,29.88,10,10,10,17,6,26,0.00,2,,128